首页
METAR-TAF:

METAR-TAF

机场 :

哈瓦那, 古巴

何塞·马蒂国际机场

纬度: 22-59N, 经度: 082-24W, 海拔: 59米

当前天气观测

该预报发布于59分钟前的22:55 UTC
风速11节,风向东北
温度 16°C
湿度 55%
气压 1023 hPa
能见度10公里或以上
散云层高于3300英尺

METAR: MUHA 182255Z 05011KT 9999 SCT033 16/07 Q1023

时间: 18:54 (23:54 UTC)

预报

该预报发布于54分钟前的23:00 UTC
预报有效从19日的 00点(UTC)到 19日的 24点(UTC)
风速15节,风向东北
能見度: 9000
少量云层高于2000英尺
成为
从 19日的 01点(UTC)到 19日的 03点(UTC)
风速8节,风向东北
成为
从 19日的 10点(UTC)到 19日的 13点(UTC)
风速15节,风向东北

TAF: MUHA 182300Z 1900/1924 04015KT 9000 FEW020 BECMG 1901/1903 04008KT BECMG 1910/1913 04015KT

超过4000个机场的气象观测和天气预报(METAR&TAF报告)。

可查询的气象台以黄色和红色小点在地图上表示。

将鼠标移到小点上方,可查看气象台名称。

然后点击查看天气观测和预报。

如需切换地图:点击带黑十字的绿色按钮放大地图;点击带横线的绿色按钮缩小地图;或者点击绿色箭头查看邻近地区的地图。


METAR-TAF: